100LL.CA
Aviation Fuel Pricing for Canadians
Please upgrade your browser - Tested with IE9, FireFox, Chrome, Safari

Fuel Prices Airport Info Airport List METAR / TAF Kneeboard RSS

Reference Airport: Langley Regional, BC
N 49 06 03   W 122 37 51

Enter a list of
Airport Idents:
Sort Method: As Entered    By Ident   

CYVR
METAR CYVR 210700Z 09005KT 20SM FEW240 04/03 A3008 RMK CI2 SLP188
TAF CYVR 210538Z 2106/2212 07008KT P6SM FEW003 SCT012 TEMPO 2106/2112 FEW003 BKN012 PROB40 2106/2112 1/2SM FG BKN003 FM211200 06005KT P6SM FEW008 BKN080 TEMPO 2112/2115 5SM -RA BR OVC040 FM211500 09008KT P6SM -RA SCT020 OVC040 TEMPO 2115/2122 5SM RA BR OVC020 FM212200 10008KT P6SM -RA SCT007 OVC020 TEMPO 2122/2206 5SM RA BR BKN007 OVC020 RMK NXT FCST BY 210900Z
CYXX
METAR CYXX 210700Z 01002KT 1/8SM FG VV002 04/04 A3010 RMK FG8 SLP195
TAF CYXX 210538Z 2106/2206 VRB03KT 1/4SM FG VV002 TEMPO 2106/2112 1SM BR BKN003 FM211200 05008KT P6SM BKN040 TEMPO 2112/2115 2SM -RA BR BKN005 PROB40 2112/2115 1/2SM FG BKN002 FM211500 06010KT 6SM -RA BR OVC030 TEMPO 2115/2122 3SM RA BR SCT006 OVC015 FM212200 06012KT 6SM -RA BR SCT006 OVC020 TEMPO 2122/2206 3SM RA BR BKN006 OVC020 RMK NXT FCST BY 211200Z
KBLI
METAR KBLI 210753Z AUTO 00000KT 5SM BR CLR 02/02 A3008 RMK AO2 SLP196 T00170017 400890006
TAF KBLI 210528Z 2106/2206 16004KT P6SM SCT250 FM211200 05005KT P6SM SCT050 OVC100 FM211500 03006KT 2SM -RA BR OVC035 WS020/19030KT FM211800 03008G15KT 2SM RA BR OVC025 WS020/19035KT FM212300 16010G20KT 5SM -SHRA BKN025 OVC035